Time;durP1;ratioP1;P1;durP2;ratioP2;P2;SDS_P1;SDS_P2;PMS_P1;PMS_P2;Temp;Humidity;BMP_temperature;BMP_pressure;BME280_temperature;BME280_humidity;BME280_pressure;Samples;Min_cycle;Max_cycle;Signal;HPM_P1;HPM_P2
2022/01/28 00:04:45;;;;;;;;;;;15.90;46.30;;;;;;5093033;28;19915;-64
2022/01/28 00:07:10;;;;;;;;;;;16.00;46.40;;;;;;5091695;28;19911;-63
2022/01/28 00:09:36;;;;;;;;;;;16.00;46.40;;;;;;5092383;28;19908;-63
2022/01/28 00:12:02;;;;;;;;;;;15.90;46.40;;;;;;5092771;28;19912;-63
2022/01/28 00:14:44;;;;;;;;;;;15.90;46.40;;;;;;5091357;28;19915;-63
2022/01/28 00:36:47;;;;;;;;;;;15.70;46.70;;;;;;5092480;28;19961;-63
2022/01/28 00:39:13;;;;;;;;;;;15.70;46.80;;;;;;5124749;27;19912;-63
2022/01/28 00:41:38;;;;;;;;;;;15.70;46.80;;;;;;5108044;28;19919;-63
2022/01/28 00:44:04;;;;;;;;;;;15.70;46.70;;;;;;5092340;28;19912;-63
2022/01/28 00:46:29;;;;;;;;;;;15.70;46.70;;;;;;5092491;28;19908;-63
2022/01/28 00:48:56;;;;;;;;;;;15.70;46.80;;;;;;5092269;28;19912;-63
2022/01/28 00:51:21;;;;;;;;;;;15.60;46.80;;;;;;5092277;28;19962;-63
2022/01/28 00:53:47;;;;;;;;;;;15.60;46.90;;;;;;5090525;28;20443;-63
2022/01/28 00:56:12;;;;;;;;;;;15.60;47.00;;;;;;5092315;28;19961;-63
2022/01/28 00:58:38;;;;;;;;;;;15.60;47.00;;;;;;5090962;28;20014;-63
2022/01/28 01:01:03;;;;;;;;;;;15.50;47.00;;;;;;5092272;28;19916;-63
2022/01/28 01:03:29;;;;;;;;;;;15.50;47.00;;;;;;5092111;28;19912;-63
2022/01/28 01:05:54;;;;;;;;;;;15.50;47.10;;;;;;5092050;28;19916;-63
2022/01/28 01:08:20;;;;;;;;;;;15.50;47.10;;;;;;5092174;28;19944;-64
2022/01/28 01:10:45;;;;;;;;;;;15.50;47.10;;;;;;5091542;28;20140;-64
2022/01/28 01:13:11;;;;;;;;;;;15.50;47.10;;;;;;5094376;28;19912;-64
2022/01/28 01:15:41;;;;;;;;;;;15.50;47.10;;;;;;5096097;28;20283;-63
2022/01/28 01:23:13;;;;;;;;;;;15.40;47.10;;;;;;5103125;28;19961;-63
2022/01/28 01:25:57;;;;;;;;;;;15.40;47.20;;;;;;5095316;28;19912;-63
2022/01/28 01:28:28;;;;;;;;;;;15.40;47.20;;;;;;5094876;28;20001;-64
2022/01/28 01:30:54;;;;;;;;;;;15.40;47.20;;;;;;5102547;28;19915;-64
2022/01/28 01:33:21;;;;;;;;;;;15.40;47.10;;;;;;5095791;28;19912;-62
2022/01/28 01:35:46;;;;;;;;;;;15.40;47.20;;;;;;5095882;28;19923;-63
2022/01/28 01:38:12;;;;;;;;;;;15.40;47.20;;;;;;5095665;28;19920;-63
2022/01/28 01:40:52;;;;;;;;;;;15.40;47.20;;;;;;5095188;28;19908;-63
2022/01/28 01:43:31;;;;;;;;;;;15.40;47.20;;;;;;5094716;28;19998;-63
2022/01/28 01:54:03;;;;;;;;;;;15.30;47.20;;;;;;5095036;28;20322;-63
2022/01/28 01:56:28;;;;;;;;;;;15.40;47.30;;;;;;5095353;28;19912;-63
2022/01/28 01:58:54;;;;;;;;;;;15.30;47.20;;;;;;5095150;28;19974;-63
2022/01/28 02:01:20;;;;;;;;;;;15.30;47.20;;;;;;5095254;28;19955;-63
2022/01/28 02:03:45;;;;;;;;;;;15.30;47.20;;;;;;5095063;28;19936;-64
2022/01/28 02:06:11;;;;;;;;;;;15.30;47.20;;;;;;5095205;28;19908;-64
2022/01/28 02:08:36;;;;;;;;;;;15.30;47.20;;;;;;5093783;28;19947;-63
2022/01/28 02:11:02;;;;;;;;;;;15.20;47.20;;;;;;5094060;28;19977;-63
2022/01/28 02:13:30;;;;;;;;;;;15.20;47.40;;;;;;5095030;28;20003;-63
2022/01/28 02:15:57;;;;;;;;;;;15.20;47.50;;;;;;5090299;28;19919;-63
2022/01/28 02:18:23;;;;;;;;;;;15.20;47.50;;;;;;5093118;28;19959;-63
2022/01/28 02:20:50;;;;;;;;;;;15.20;47.40;;;;;;5074593;28;19967;-63
2022/01/28 02:23:16;;;;;;;;;;;15.30;47.40;;;;;;5105372;28;19947;-63
2022/01/28 02:25:43;;;;;;;;;;;15.30;47.20;;;;;;5107071;28;19955;-63
2022/01/28 02:28:10;;;;;;;;;;;15.40;47.10;;;;;;5089989;28;19939;-63
2022/01/28 02:30:36;;;;;;;;;;;15.50;46.90;;;;;;5094489;28;20325;-63
2022/01/28 02:33:17;;;;;;;;;;;15.60;46.60;;;;;;5093185;28;19916;-64
2022/01/28 02:35:43;;;;;;;;;;;15.70;46.40;;;;;;5093014;28;20003;-63
2022/01/28 02:38:13;;;;;;;;;;;15.80;46.20;;;;;;5092975;28;20014;-63
2022/01/28 02:40:42;;;;;;;;;;;15.80;46.10;;;;;;5093055;28;19916;-63
2022/01/28 02:46:14;;;;;;;;;;;15.90;45.90;;;;;;5080068;28;19919;-63
2022/01/28 02:48:50;;;;;;;;;;;16.00;45.70;;;;;;5093554;28;19909;-63
2022/01/28 02:51:19;;;;;;;;;;;16.10;45.60;;;;;;5100928;28;19941;-63
2022/01/28 02:53:52;;;;;;;;;;;16.20;45.40;;;;;;5092959;28;20214;-63
2022/01/28 02:56:31;;;;;;;;;;;16.30;45.20;;;;;;5094160;28;19987;-64
2022/01/28 02:58:56;;;;;;;;;;;16.40;45.10;;;;;;5079369;28;19912;-64
2022/01/28 03:01:22;;;;;;;;;;;16.50;45.00;;;;;;5072013;28;19913;-63
2022/01/28 03:03:48;;;;;;;;;;;16.50;44.80;;;;;;5073612;28;20389;-64
2022/01/28 03:06:14;;;;;;;;;;;16.60;44.70;;;;;;5085900;28;19934;-64
2022/01/28 03:08:43;;;;;;;;;;;16.60;44.50;;;;;;5092690;28;19961;-64
2022/01/28 03:16:40;;;;;;;;;;;16.70;44.30;;;;;;5093279;28;20334;-63
2022/01/28 03:19:18;;;;;;;;;;;16.80;44.20;;;;;;5093669;28;19912;-63
2022/01/28 03:21:53;;;;;;;;;;;16.80;44.10;;;;;;5093526;28;19920;-63
2022/01/28 03:24:19;;;;;;;;;;;16.80;44.10;;;;;;5094079;28;19920;-63
2022/01/28 03:26:45;;;;;;;;;;;16.80;44.10;;;;;;5092012;28;19908;-63
2022/01/28 03:29:10;;;;;;;;;;;16.80;44.10;;;;;;5093513;28;19915;-63
2022/01/28 03:31:38;;;;;;;;;;;16.80;44.00;;;;;;5092917;28;19908;-63
2022/01/28 03:34:03;;;;;;;;;;;16.80;43.90;;;;;;5093222;28;19959;-63
2022/01/28 03:36:29;;;;;;;;;;;16.90;43.90;;;;;;5091913;28;19916;-63
2022/01/28 03:38:54;;;;;;;;;;;16.90;43.90;;;;;;5093351;28;19952;-63
2022/01/28 03:41:20;;;;;;;;;;;16.90;43.80;;;;;;5093148;28;19909;-63
2022/01/28 03:43:46;;;;;;;;;;;16.90;43.80;;;;;;5091964;28;20390;-63
2022/01/28 03:46:11;;;;;;;;;;;16.90;43.70;;;;;;5074494;28;19908;-63
2022/01/28 03:48:37;;;;;;;;;;;16.90;43.70;;;;;;5093418;28;19935;-63
2022/01/28 03:51:02;;;;;;;;;;;16.90;43.70;;;;;;5092967;28;19935;-64
2022/01/28 03:53:28;;;;;;;;;;;16.90;43.60;;;;;;5093038;28;19947;-64
2022/01/28 03:55:56;;;;;;;;;;;16.90;43.60;;;;;;5092765;28;19919;-64
2022/01/28 03:58:21;;;;;;;;;;;16.90;43.70;;;;;;5091914;28;20010;-64
2022/01/28 04:00:47;;;;;;;;;;;16.80;43.70;;;;;;5092222;28;20003;-64
2022/01/28 04:13:45;;;;;;;;;;;16.70;44.00;;;;;;5099510;28;20090;-64
2022/01/28 04:18:42;;;;;;;;;;;16.80;44.00;;;;;;5098529;28;19912;-64
2022/01/28 04:21:07;;;;;;;;;;;16.80;44.00;;;;;;5092377;28;19942;-64
2022/01/28 04:23:33;;;;;;;;;;;16.80;43.90;;;;;;5091410;28;20376;-64
2022/01/28 04:25:58;;;;;;;;;;;16.80;43.90;;;;;;5092448;28;19912;-63
2022/01/28 04:28:23;;;;;;;;;;;16.80;43.90;;;;;;5091264;28;20368;-63
2022/01/28 04:30:49;;;;;;;;;;;16.80;43.80;;;;;;5091938;28;20291;-63
2022/01/28 04:33:14;;;;;;;;;;;16.80;43.70;;;;;;5092768;28;20057;-63
2022/01/28 04:35:40;;;;;;;;;;;16.80;43.70;;;;;;5092187;28;20393;-63
2022/01/28 04:40:40;;;;;;;;;;;16.90;43.80;;;;;;5092352;28;20392;-63
2022/01/28 04:43:14;;;;;;;;;;;16.90;43.80;;;;;;5125199;28;19908;-63
2022/01/28 04:45:51;;;;;;;;;;;16.90;43.70;;;;;;5098901;28;19912;-63
2022/01/28 04:48:28;;;;;;;;;;;16.90;43.70;;;;;;5098821;28;19912;-63
2022/01/28 04:51:12;;;;;;;;;;;16.90;43.60;;;;;;5098020;28;20403;-63
2022/01/28 04:56:15;;;;;;;;;;;17.00;43.60;;;;;;5098903;28;20372;-63
2022/01/28 05:27:13;;;;;;;;;;;17.00;43.50;;;;;;5098921;28;19915;-63
2022/01/28 05:29:41;;;;;;;;;;;17.00;43.40;;;;;;5097949;28;19914;-63
2022/01/28 05:32:07;;;;;;;;;;;17.00;43.40;;;;;;5098487;28;19912;-64
2022/01/28 05:34:33;;;;;;;;;;;17.00;43.30;;;;;;5097483;28;20330;-64
2022/01/28 05:36:58;;;;;;;;;;;17.00;43.30;;;;;;5098536;28;19913;-64
2022/01/28 05:39:23;;;;;;;;;;;17.00;43.30;;;;;;5097200;28;19920;-63
2022/01/28 05:41:49;;;;;;;;;;;17.00;43.30;;;;;;5098501;28;19919;-63
2022/01/28 05:44:14;;;;;;;;;;;17.00;43.30;;;;;;5098640;28;19941;-63
2022/01/28 05:46:40;;;;;;;;;;;17.00;43.30;;;;;;5096773;28;19939;-63
2022/01/28 05:49:06;;;;;;;;;;;17.00;43.30;;;;;;5098517;28;19912;-64
2022/01/28 05:51:31;;;;;;;;;;;17.00;43.30;;;;;;5080504;28;19908;-64
2022/01/28 05:53:59;;;;;;;;;;;17.00;43.30;;;;;;5098365;28;19908;-64
2022/01/28 05:56:25;;;;;;;;;;;17.00;43.40;;;;;;5098185;28;19994;-64
2022/01/28 05:58:51;;;;;;;;;;;16.90;43.30;;;;;;5094702;28;19912;-64
2022/01/28 06:01:16;;;;;;;;;;;17.00;43.40;;;;;;5093771;28;19908;-64
2022/01/28 06:03:44;;;;;;;;;;;16.90;43.30;;;;;;5095107;28;19977;-64
2022/01/28 06:06:13;;;;;;;;;;;17.00;43.30;;;;;;5093815;28;19912;-64
2022/01/28 06:08:38;;;;;;;;;;;17.00;43.30;;;;;;5093827;28;19912;-64
2022/01/28 06:11:07;;;;;;;;;;;17.00;43.30;;;;;;5094981;28;19914;-63
2022/01/28 06:13:32;;;;;;;;;;;17.00;43.20;;;;;;5093935;28;20182;-63
2022/01/28 06:15:57;;;;;;;;;;;17.00;43.20;;;;;;5094366;28;19908;-63
2022/01/28 06:18:23;;;;;;;;;;;17.00;43.30;;;;;;5127579;27;19912;-63
2022/01/28 06:20:48;;;;;;;;;;;17.00;43.30;;;;;;5094596;28;19973;-63
2022/01/28 06:23:14;;;;;;;;;;;17.00;43.30;;;;;;5094770;28;19916;-63
2022/01/28 06:25:39;;;;;;;;;;;17.00;43.20;;;;;;5094663;28;19951;-63
2022/01/28 06:28:05;;;;;;;;;;;17.00;43.20;;;;;;5093471;28;19908;-64
2022/01/28 06:30:30;;;;;;;;;;;17.00;43.20;;;;;;5094237;28;20426;-64
2022/01/28 06:32:56;;;;;;;;;;;17.00;43.20;;;;;;5094671;28;19909;-64
2022/01/28 06:35:21;;;;;;;;;;;17.00;43.10;;;;;;5127315;27;19912;-64
2022/01/28 06:37:46;;;;;;;;;;;17.00;43.10;;;;;;5094490;28;19944;-64
2022/01/28 06:40:13;;;;;;;;;;;17.00;43.10;;;;;;5094380;28;19916;-64
2022/01/28 06:42:38;;;;;;;;;;;17.00;43.10;;;;;;5093213;28;19912;-64
2022/01/28 06:45:04;;;;;;;;;;;17.00;43.10;;;;;;5092557;28;20048;-64
2022/01/28 06:47:29;;;;;;;;;;;17.00;43.10;;;;;;5076578;28;19912;-64
2022/01/28 06:49:55;;;;;;;;;;;17.00;43.00;;;;;;5127061;27;19912;-64
2022/01/28 06:52:20;;;;;;;;;;;17.00;43.00;;;;;;5094110;28;19908;-64
2022/01/28 06:54:46;;;;;;;;;;;17.00;42.90;;;;;;5093072;28;19908;-64
2022/01/28 06:57:11;;;;;;;;;;;17.00;42.90;;;;;;5093991;28;19909;-64
2022/01/28 06:59:37;;;;;;;;;;;17.00;42.90;;;;;;5094084;28;19912;-64
2022/01/28 07:02:02;;;;;;;;;;;17.00;42.80;;;;;;5093465;28;20295;-64
2022/01/28 07:04:28;;;;;;;;;;;17.00;42.80;;;;;;5094340;28;19908;-64
2022/01/28 07:06:53;;;;;;;;;;;17.00;42.80;;;;;;5093867;28;19908;-64
2022/01/28 07:09:18;;;;;;;;;;;17.00;42.80;;;;;;5109125;28;19912;-64
2022/01/28 07:11:44;;;;;;;;;;;17.00;42.80;;;;;;5092579;28;19919;-64
2022/01/28 07:14:09;;;;;;;;;;;17.00;42.80;;;;;;5093722;28;19954;-64
2022/01/28 07:16:35;;;;;;;;;;;17.00;42.80;;;;;;5093417;28;19908;-64
2022/01/28 07:19:01;;;;;;;;;;;17.00;42.80;;;;;;5092289;28;19919;-64
2022/01/28 07:21:27;;;;;;;;;;;17.00;42.80;;;;;;5093667;28;19908;-64
2022/01/28 07:23:52;;;;;;;;;;;17.00;42.80;;;;;;5092406;28;19919;-64
2022/01/28 07:26:18;;;;;;;;;;;17.00;42.70;;;;;;5092216;28;19916;-64
2022/01/28 07:28:43;;;;;;;;;;;17.00;42.60;;;;;;5126374;27;19908;-64
2022/01/28 07:31:10;;;;;;;;;;;17.00;42.60;;;;;;5093025;28;20003;-64
2022/01/28 07:33:35;;;;;;;;;;;17.00;42.60;;;;;;5093582;28;19919;-64
2022/01/28 07:36:01;;;;;;;;;;;17.00;42.70;;;;;;5091846;28;19908;-64
2022/01/28 07:38:26;;;;;;;;;;;17.00;42.70;;;;;;5092114;28;19981;-64
2022/01/28 07:40:52;;;;;;;;;;;17.00;42.70;;;;;;5093269;28;19986;-64
2022/01/28 07:43:17;;;;;;;;;;;17.00;42.60;;;;;;5093323;28;19961;-63
2022/01/28 07:45:43;;;;;;;;;;;16.90;42.50;;;;;;5091408;28;19919;-63
2022/01/28 07:48:09;;;;;;;;;;;17.00;42.60;;;;;;5092045;28;20399;-63
2022/01/28 07:50:34;;;;;;;;;;;17.00;42.60;;;;;;5092977;28;20003;-63
2022/01/28 07:53:00;;;;;;;;;;;17.00;42.60;;;;;;5108677;28;20257;-63
2022/01/28 07:55:25;;;;;;;;;;;17.00;42.60;;;;;;5092826;28;19908;-63
2022/01/28 07:57:51;;;;;;;;;;;17.00;42.60;;;;;;5091712;28;19908;-63
2022/01/28 08:00:16;;;;;;;;;;;17.00;42.60;;;;;;5092321;28;19912;-63
2022/01/28 08:02:45;;;;;;;;;;;17.00;42.50;;;;;;5092909;28;19908;-64
2022/01/28 08:05:10;;;;;;;;;;;17.00;42.50;;;;;;5091825;28;20261;-64
2022/01/28 08:07:36;;;;;;;;;;;17.10;42.60;;;;;;5092916;28;19908;-64
2022/01/28 08:10:01;;;;;;;;;;;17.00;42.50;;;;;;5091397;28;20293;-64
2022/01/28 08:12:27;;;;;;;;;;;17.00;42.60;;;;;;5091691;28;19960;-63
2022/01/28 08:14:52;;;;;;;;;;;17.00;42.50;;;;;;5091417;28;19934;-63
2022/01/28 08:17:18;;;;;;;;;;;17.00;42.50;;;;;;5092285;28;19916;-63
2022/01/28 08:19:43;;;;;;;;;;;17.00;42.50;;;;;;5091078;28;19924;-63
2022/01/28 08:22:09;;;;;;;;;;;17.10;42.60;;;;;;5090567;28;19912;-64
2022/01/28 08:24:34;;;;;;;;;;;17.10;42.60;;;;;;5092635;28;20455;-63
2022/01/28 08:27:01;;;;;;;;;;;17.10;42.50;;;;;;5091888;28;21267;-63
2022/01/28 08:29:27;;;;;;;;;;;17.10;42.50;;;;;;5092564;28;20018;-63
2022/01/28 08:31:52;;;;;;;;;;;17.10;42.50;;;;;;5091905;28;19945;-62
2022/01/28 08:34:18;;;;;;;;;;;17.10;42.50;;;;;;5091090;28;19977;-63
2022/01/28 08:36:43;;;;;;;;;;;17.10;42.50;;;;;;5125116;27;19974;-63
2022/01/28 08:39:10;;;;;;;;;;;17.10;42.50;;;;;;5125187;27;19951;-63
2022/01/28 08:41:38;;;;;;;;;;;17.10;42.50;;;;;;5108032;28;19908;-63
2022/01/28 08:44:04;;;;;;;;;;;17.10;42.50;;;;;;5091201;28;20372;-63
2022/01/28 08:46:30;;;;;;;;;;;17.10;42.50;;;;;;5090589;28;19951;-63
2022/01/28 08:48:55;;;;;;;;;;;17.10;42.50;;;;;;5092425;28;20356;-63
2022/01/28 08:51:21;;;;;;;;;;;17.10;42.40;;;;;;5092089;28;20258;-64
2022/01/28 08:53:46;;;;;;;;;;;17.10;42.40;;;;;;5092163;28;19923;-64
2022/01/28 08:56:11;;;;;;;;;;;17.20;42.50;;;;;;5092203;28;19934;-64
2022/01/28 08:58:37;;;;;;;;;;;17.20;42.50;;;;;;5092211;28;19999;-64
2022/01/28 09:01:02;;;;;;;;;;;17.20;42.50;;;;;;5090530;28;19912;-64
2022/01/28 09:03:28;;;;;;;;;;;17.20;43.10;;;;;;5092124;28;19908;-64
2022/01/28 09:05:53;;;;;;;;;;;17.20;42.30;;;;;;5090803;28;19908;-64
2022/01/28 09:08:19;;;;;;;;;;;17.20;42.30;;;;;;5092200;28;19957;-64
2022/01/28 09:10:57;;;;;;;;;;;17.20;42.30;;;;;;5092098;28;19912;-64
2022/01/28 09:13:25;;;;;;;;;;;17.20;42.20;;;;;;5109789;28;19926;-64
2022/01/28 09:15:52;;;;;;;;;;;17.20;42.10;;;;;;5090328;28;19908;-64
2022/01/28 09:18:18;;;;;;;;;;;17.30;42.20;;;;;;5092014;28;20011;-64
2022/01/28 09:20:43;;;;;;;;;;;17.30;42.20;;;;;;5090479;28;19927;-64
2022/01/28 09:23:09;;;;;;;;;;;17.30;42.20;;;;;;5090814;28;19916;-64
2022/01/28 09:25:34;;;;;;;;;;;17.30;42.20;;;;;;5090678;28;20334;-64
2022/01/28 09:28:00;;;;;;;;;;;17.30;42.20;;;;;;5091886;28;19912;-64
2022/01/28 09:30:26;;;;;;;;;;;17.30;42.20;;;;;;5090379;28;19908;-64
2022/01/28 09:32:51;;;;;;;;;;;17.30;42.20;;;;;;5126057;27;19908;-64
2022/01/28 09:35:17;;;;;;;;;;;17.40;42.20;;;;;;5077370;28;19936;-64
2022/01/28 09:37:43;;;;;;;;;;;17.40;42.30;;;;;;5094509;28;19912;-64
2022/01/28 09:40:08;;;;;;;;;;;17.40;42.20;;;;;;5095460;28;19912;-64
2022/01/28 09:42:37;;;;;;;;;;;17.40;42.20;;;;;;5095595;28;19961;-64
2022/01/28 09:45:04;;;;;;;;;;;17.40;42.20;;;;;;5095179;28;19909;-64
2022/01/28 09:47:30;;;;;;;;;;;17.40;42.20;;;;;;5095530;28;19920;-64
2022/01/28 09:49:55;;;;;;;;;;;17.40;42.20;;;;;;5095520;28;20364;-64
2022/01/28 09:52:21;;;;;;;;;;;17.40;42.30;;;;;;5094127;28;19952;-64
2022/01/28 09:54:46;;;;;;;;;;;17.40;42.30;;;;;;5095376;28;20361;-64
2022/01/28 09:57:12;;;;;;;;;;;17.40;42.20;;;;;;5095274;28;20304;-64
2022/01/28 09:59:38;;;;;;;;;;;17.40;42.20;;;;;;5095235;28;19920;-63
2022/01/28 10:02:03;;;;;;;;;;;17.40;42.20;;;;;;5094673;28;19912;-63
2022/01/28 10:04:29;;;;;;;;;;;17.50;42.30;;;;;;5094262;28;19912;-64
2022/01/28 10:06:56;;;;;;;;;;;17.50;42.30;;;;;;5095075;28;20328;-64
2022/01/28 10:09:23;;;;;;;;;;;17.50;42.30;;;;;;5095118;28;19908;-63
2022/01/28 10:11:52;;;;;;;;;;;17.50;42.30;;;;;;5093846;28;19913;-63
2022/01/28 10:14:21;;;;;;;;;;;17.50;42.40;;;;;;5093850;28;19993;-63
2022/01/28 10:16:57;;;;;;;;;;;17.50;42.30;;;;;;5094364;28;19908;-63
2022/01/28 10:19:23;;;;;;;;;;;17.50;42.30;;;;;;5093487;28;20061;-63
2022/01/28 10:21:49;;;;;;;;;;;17.50;42.30;;;;;;5093559;28;20284;-63
2022/01/28 10:24:18;;;;;;;;;;;17.50;42.30;;;;;;5094971;28;19919;-63
2022/01/28 10:26:45;;;;;;;;;;;17.50;43.00;;;;;;5093207;28;19919;-63
2022/01/28 10:29:14;;;;;;;;;;;17.50;42.30;;;;;;5094824;28;19912;-63
2022/01/28 10:31:40;;;;;;;;;;;17.50;42.30;;;;;;5094087;28;20319;-63
2022/01/28 10:34:09;;;;;;;;;;;17.50;42.40;;;;;;5094749;28;19908;-64
2022/01/28 10:36:34;;;;;;;;;;;17.50;42.30;;;;;;5094455;28;19955;-64
2022/01/28 10:38:59;;;;;;;;;;;17.50;42.30;;;;;;5093349;28;19947;-64
2022/01/28 10:41:25;;;;;;;;;;;17.50;42.30;;;;;;5093027;28;19908;-64
2022/01/28 10:43:54;;;;;;;;;;;17.50;42.30;;;;;;5093677;28;20442;-64
2022/01/28 10:46:35;;;;;;;;;;;17.50;42.30;;;;;;5093767;28;19912;-64
2022/01/28 10:49:04;;;;;;;;;;;17.50;42.30;;;;;;5101332;28;19908;-64
2022/01/28 10:51:56;;;;;;;;;;;17.50;42.40;;;;;;5093065;28;19918;-64
2022/01/28 10:54:22;;;;;;;;;;;17.50;42.40;;;;;;5092084;28;20291;-64
2022/01/28 10:56:47;;;;;;;;;;;17.60;42.40;;;;;;5094058;28;19908;-64
2022/01/28 10:59:13;;;;;;;;;;;17.60;42.40;;;;;;5094094;28;19924;-64
2022/01/28 11:01:39;;;;;;;;;;;17.60;42.40;;;;;;5094081;28;19979;-64
2022/01/28 11:04:05;;;;;;;;;;;17.60;42.40;;;;;;5075851;28;19908;-64
2022/01/28 11:06:30;;;;;;;;;;;17.60;42.40;;;;;;5092873;28;19977;-64
2022/01/28 11:08:56;;;;;;;;;;;17.60;42.40;;;;;;5092966;28;19908;-64
2022/01/28 11:11:22;;;;;;;;;;;17.60;42.50;;;;;;5092846;28;19951;-64
2022/01/28 11:13:47;;;;;;;;;;;17.60;42.30;;;;;;5075744;28;19947;-64
2022/01/28 11:16:12;;;;;;;;;;;17.60;42.40;;;;;;5093444;28;20399;-63
2022/01/28 11:18:38;;;;;;;;;;;17.60;42.40;;;;;;5092497;28;20253;-63
2022/01/28 11:21:06;;;;;;;;;;;17.60;42.20;;;;;;5092112;28;19924;-62
2022/01/28 11:23:45;;;;;;;;;;;17.60;42.20;;;;;;5092440;28;19997;-63
2022/01/28 11:26:13;;;;;;;;;;;17.70;42.30;;;;;;5093617;28;20368;-63
2022/01/28 11:28:40;;;;;;;;;;;17.70;42.20;;;;;;5092589;28;19908;-63
2022/01/28 11:31:06;;;;;;;;;;;17.70;42.20;;;;;;5093032;28;20278;-63
2022/01/28 11:33:48;;;;;;;;;;;17.70;42.20;;;;;;5093655;28;19908;-63
2022/01/28 11:36:13;;;;;;;;;;;17.70;42.20;;;;;;5092198;28;19912;-63
2022/01/28 11:38:40;;;;;;;;;;;17.70;42.20;;;;;;5092327;28;19916;-63
2022/01/28 11:41:06;;;;;;;;;;;17.70;42.10;;;;;;5093293;28;20406;-63
2022/01/28 11:43:32;;;;;;;;;;;17.70;42.20;;;;;;5092034;28;19908;-63
2022/01/28 11:46:06;;;;;;;;;;;17.70;42.10;;;;;;5091545;28;19908;-63
2022/01/28 11:48:50;;;;;;;;;;;17.70;42.20;;;;;;5093429;28;19956;-64
2022/01/28 11:51:16;;;;;;;;;;;17.70;42.10;;;;;;5093054;28;19954;-64
2022/01/28 11:53:52;;;;;;;;;;;17.70;42.10;;;;;;5093221;28;19947;-64
2022/01/28 11:56:17;;;;;;;;;;;17.70;42.10;;;;;;5074488;28;19915;-64
2022/01/28 11:59:14;;;;;;;;;;;17.70;42.00;;;;;;5091800;28;20360;-64
2022/01/28 12:01:39;;;;;;;;;;;17.70;42.00;;;;;;5084124;28;19980;-64
2022/01/28 12:04:24;;;;;;;;;;;17.70;42.00;;;;;;5092786;28;20360;-64
2022/01/28 12:07:06;;;;;;;;;;;17.70;42.00;;;;;;5092894;28;19911;-64
2022/01/28 12:09:32;;;;;;;;;;;17.70;42.20;;;;;;5091886;28;20041;-64
2022/01/28 12:11:58;;;;;;;;;;;17.60;42.20;;;;;;5091345;28;19908;-64
2022/01/28 12:14:43;;;;;;;;;;;17.60;42.40;;;;;;5093102;28;20348;-64
2022/01/28 12:17:27;;;;;;;;;;;17.60;42.50;;;;;;5092215;28;19908;-64
2022/01/28 12:20:21;;;;;;;;;;;17.50;42.30;;;;;;5092429;28;20363;-64
2022/01/28 12:23:01;;;;;;;;;;;17.50;42.30;;;;;;5091188;28;19990;-64
2022/01/28 12:25:47;;;;;;;;;;;17.40;43.00;;;;;;5092457;28;19909;-64
2022/01/28 12:28:13;;;;;;;;;;;17.40;42.40;;;;;;5092143;28;19915;-63
2022/01/28 12:30:38;;;;;;;;;;;17.40;42.60;;;;;;5090829;28;19908;-63
2022/01/28 12:33:04;;;;;;;;;;;17.30;42.60;;;;;;5091264;28;20372;-64
2022/01/28 12:35:29;;;;;;;;;;;17.30;42.70;;;;;;5092434;28;19992;-64
2022/01/28 12:38:00;;;;;;;;;;;17.30;42.80;;;;;;5091129;28;19909;-63
2022/01/28 12:40:29;;;;;;;;;;;17.30;42.80;;;;;;5092448;28;20351;-63
2022/01/28 12:42:54;;;;;;;;;;;17.30;42.80;;;;;;5091028;28;19962;-63
2022/01/28 12:45:20;;;;;;;;;;;17.30;42.80;;;;;;5091912;28;20409;-63
2022/01/28 12:47:46;;;;;;;;;;;17.20;42.90;;;;;;5092235;28;19908;-63
2022/01/28 12:50:12;;;;;;;;;;;17.20;43.00;;;;;;5091256;28;19934;-63
2022/01/28 12:52:37;;;;;;;;;;;17.20;43.00;;;;;;5091140;28;19915;-63
2022/01/28 12:55:03;;;;;;;;;;;17.20;43.10;;;;;;5125265;28;19912;-63
2022/01/28 12:57:29;;;;;;;;;;;17.20;43.20;;;;;;5091006;28;19908;-63
2022/01/28 12:59:54;;;;;;;;;;;17.10;43.20;;;;;;5092119;28;19916;-63
2022/01/28 13:02:20;;;;;;;;;;;17.10;43.20;;;;;;5091559;28;20001;-64
2022/01/28 13:09:52;;;;;;;;;;;17.10;43.30;;;;;;5103439;28;19915;-63
2022/01/28 13:12:21;;;;;;;;;;;17.10;43.30;;;;;;5094976;28;19908;-63
2022/01/28 13:14:46;;;;;;;;;;;17.10;43.30;;;;;;5096468;28;20276;-63
2022/01/28 13:17:12;;;;;;;;;;;17.20;43.30;;;;;;5095695;28;19914;-63
2022/01/28 13:19:37;;;;;;;;;;;17.20;43.20;;;;;;5094573;28;20372;-63
2022/01/28 13:22:03;;;;;;;;;;;17.20;43.20;;;;;;5095926;28;19912;-63
2022/01/28 13:24:29;;;;;;;;;;;17.20;43.10;;;;;;5096106;28;20319;-63
2022/01/28 13:27:12;;;;;;;;;;;17.30;43.20;;;;;;5095863;28;19916;-63
2022/01/28 13:29:38;;;;;;;;;;;17.30;43.20;;;;;;5094707;28;19912;-63
2022/01/28 13:32:08;;;;;;;;;;;17.30;43.10;;;;;;5095621;28;19913;-63
2022/01/28 13:34:46;;;;;;;;;;;17.30;43.20;;;;;;5095822;28;19918;-63
2022/01/28 13:37:11;;;;;;;;;;;17.30;43.80;;;;;;5095745;28;19915;-63
2022/01/28 13:39:40;;;;;;;;;;;17.30;43.00;;;;;;5095899;28;19912;-63
2022/01/28 13:42:06;;;;;;;;;;;17.30;43.60;;;;;;5094288;28;19912;-63
2022/01/28 13:44:34;;;;;;;;;;;17.30;43.00;;;;;;5095979;28;19908;-63
2022/01/28 13:47:00;;;;;;;;;;;17.30;43.00;;;;;;5095041;28;19912;-63
2022/01/28 13:49:29;;;;;;;;;;;17.30;43.00;;;;;;5094578;28;20010;-63
2022/01/28 13:52:05;;;;;;;;;;;17.30;43.00;;;;;;5095210;28;20386;-63
2022/01/28 13:54:30;;;;;;;;;;;17.30;43.00;;;;;;5094253;28;20008;-62
2022/01/28 13:56:59;;;;;;;;;;;17.30;43.00;;;;;;5094064;28;19956;-63
2022/01/28 13:59:28;;;;;;;;;;;17.30;43.00;;;;;;5094011;28;19985;-63
2022/01/28 14:01:56;;;;;;;;;;;17.30;43.00;;;;;;5094777;28;19912;-63
2022/01/28 14:04:22;;;;;;;;;;;17.30;43.00;;;;;;5093700;28;19908;-64
2022/01/28 14:06:47;;;;;;;;;;;17.30;43.20;;;;;;5093772;28;20045;-64
2022/01/28 14:09:19;;;;;;;;;;;17.30;43.30;;;;;;5095245;28;19912;-64
2022/01/28 14:11:47;;;;;;;;;;;17.30;43.30;;;;;;5094762;28;19955;-64
2022/01/28 14:14:16;;;;;;;;;;;17.30;43.30;;;;;;5094976;28;19908;-64
2022/01/28 14:16:42;;;;;;;;;;;17.20;43.20;;;;;;5093170;28;19915;-64
2022/01/28 14:19:07;;;;;;;;;;;17.20;43.40;;;;;;5093463;28;19912;-63
2022/01/28 14:21:33;;;;;;;;;;;17.20;43.50;;;;;;5095105;28;19912;-63
2022/01/28 14:23:58;;;;;;;;;;;17.20;43.50;;;;;;5093534;28;19912;-63
2022/01/28 14:26:24;;;;;;;;;;;17.20;43.50;;;;;;5094545;28;19911;-63
2022/01/28 14:29:20;;;;;;;;;;;17.20;43.50;;;;;;5093482;28;19912;-63
2022/01/28 14:31:44;;;;;;;;;;;17.10;43.50;;;;;;5093069;28;19919;-63
2022/01/28 14:34:09;;;;;;;;;;;17.10;43.60;;;;;;5094655;28;19916;-63
2022/01/28 14:36:40;;;;;;;;;;;17.20;43.70;;;;;;5093151;28;19912;-63
2022/01/28 14:39:06;;;;;;;;;;;17.20;43.60;;;;;;5094811;28;20014;-63
2022/01/28 14:41:31;;;;;;;;;;;17.20;43.60;;;;;;5094437;28;20360;-63
2022/01/28 14:43:56;;;;;;;;;;;17.20;43.50;;;;;;5094328;28;19908;-63
2022/01/28 14:46:22;;;;;;;;;;;17.20;43.50;;;;;;5093845;28;20364;-63
2022/01/28 14:48:47;;;;;;;;;;;17.20;43.60;;;;;;5094415;28;20364;-63
2022/01/28 14:51:13;;;;;;;;;;;17.20;43.50;;;;;;5094398;28;20313;-63
2022/01/28 14:53:38;;;;;;;;;;;17.20;43.50;;;;;;5094142;28;20310;-63
2022/01/28 14:56:04;;;;;;;;;;;17.20;43.50;;;;;;5094057;28;20292;-63
2022/01/28 14:58:29;;;;;;;;;;;17.30;43.50;;;;;;5094023;28;20289;-64
2022/01/28 15:00:55;;;;;;;;;;;17.30;43.50;;;;;;5093661;28;20022;-64
2022/01/28 15:03:20;;;;;;;;;;;17.30;43.50;;;;;;5092785;28;19915;-64
2022/01/28 15:05:46;;;;;;;;;;;17.20;43.40;;;;;;5093756;28;19915;-64
2022/01/28 15:08:11;;;;;;;;;;;17.30;43.50;;;;;;5092875;28;19908;-64
2022/01/28 15:10:38;;;;;;;;;;;17.30;43.60;;;;;;5093779;28;20364;-64
2022/01/28 15:13:04;;;;;;;;;;;17.30;43.50;;;;;;5093977;28;19912;-64
2022/01/28 15:15:29;;;;;;;;;;;17.30;43.60;;;;;;5092042;28;19912;-64
2022/01/28 15:17:55;;;;;;;;;;;17.20;43.60;;;;;;5092520;28;19934;-64
2022/01/28 15:20:22;;;;;;;;;;;17.30;43.60;;;;;;5092272;28;19920;-64
2022/01/28 15:22:48;;;;;;;;;;;17.30;43.60;;;;;;5093777;28;19908;-64
2022/01/28 15:25:13;;;;;;;;;;;17.30;43.60;;;;;;5093561;28;20746;-63
2022/01/28 15:27:41;;;;;;;;;;;17.30;43.60;;;;;;5092171;28;19912;-63
2022/01/28 15:30:24;;;;;;;;;;;17.30;43.70;;;;;;5092674;28;19915;-63
2022/01/28 15:35:55;;;;;;;;;;;17.20;43.70;;;;;;5092407;28;20292;-63
2022/01/28 15:38:19;;;;;;;;;;;17.20;43.80;;;;;;5093313;28;20003;-63
2022/01/28 15:40:45;;;;;;;;;;;17.20;43.70;;;;;;5093199;28;20416;-63
2022/01/28 15:43:10;;;;;;;;;;;17.20;43.70;;;;;;5092086;28;19958;-64
2022/01/28 15:45:36;;;;;;;;;;;17.20;44.30;;;;;;5092919;28;20002;-63
2022/01/28 15:48:01;;;;;;;;;;;17.20;43.70;;;;;;5091946;28;19909;-63
2022/01/28 15:50:28;;;;;;;;;;;17.20;43.80;;;;;;5092996;28;20393;-63
2022/01/28 15:52:53;;;;;;;;;;;17.20;43.80;;;;;;5091866;28;19912;-63
2022/01/28 15:55:19;;;;;;;;;;;17.20;43.80;;;;;;5092953;28;20379;-63
2022/01/28 15:57:44;;;;;;;;;;;17.20;43.80;;;;;;5093008;28;20019;-63